createdAt,value
2019-02-24T00:18:20.920Z,19.59
2019-02-24T00:19:21.554Z,19.59
2019-02-24T00:20:22.109Z,19.55
2019-02-24T00:21:22.682Z,19.52
2019-02-24T00:22:23.258Z,19.45
2019-02-24T00:49:08.081Z,19.16
2019-02-24T01:06:25.186Z,18.89
2019-02-24T01:08:27.679Z,18.78
2019-02-24T01:10:55.587Z,18.81
2019-02-24T01:11:56.155Z,18.83
2019-02-24T01:12:56.727Z,18.73
2019-02-24T01:15:12.709Z,18.71
2019-02-24T01:25:10.227Z,18.63
2019-02-24T01:26:32.616Z,18.60
2019-02-24T01:30:23.858Z,18.70
2019-02-24T01:31:42.192Z,18.66
2019-02-24T01:37:08.858Z,18.45
2019-02-24T01:40:30.677Z,18.62
2019-02-24T02:21:20.449Z,18.37
2019-02-24T02:42:21.735Z,18.16
2019-02-24T02:43:44.117Z,18.20
2019-02-24T02:47:53.392Z,18.13
2019-02-24T03:25:50.640Z,17.98
2019-02-24T03:26:51.406Z,17.95
2019-02-24T03:28:41.977Z,17.98
2019-02-24T03:43:32.053Z,18.08
2019-02-24T03:45:04.810Z,18.11
2019-02-24T03:46:06.801Z,18.05
2019-02-24T03:47:07.425Z,18.07
2019-02-24T03:48:08.001Z,18.11
2019-02-24T03:49:08.579Z,18.13
2019-02-24T03:50:09.202Z,18.07
2019-02-24T03:51:09.778Z,18.00
2019-02-24T03:52:10.351Z,17.95
2019-02-24T03:53:10.926Z,17.95
2019-02-24T03:54:11.502Z,17.95
2019-02-24T03:55:12.076Z,18.00
2019-02-24T03:56:12.657Z,17.94
2019-02-24T03:57:13.227Z,17.97
2019-02-24T03:58:13.801Z,17.90
2019-02-24T03:59:15.225Z,18.00
2019-02-24T04:00:15.994Z,18.01
2019-02-24T04:01:16.612Z,17.92
2019-02-24T04:02:17.189Z,17.86
2019-02-24T04:03:17.759Z,17.97
2019-02-24T04:04:18.339Z,18.01
2019-02-24T04:05:18.917Z,17.98
2019-02-24T04:06:19.539Z,17.98
2019-02-24T04:07:20.119Z,17.90
2019-02-24T04:08:20.693Z,17.90
2019-02-24T04:09:21.270Z,17.83
2019-02-24T04:10:21.848Z,17.89
2019-02-24T04:11:22.425Z,17.87
2019-02-24T04:12:22.990Z,17.86
2019-02-24T04:13:23.568Z,17.78
2019-02-24T04:14:24.139Z,17.79
2019-02-24T04:15:24.712Z,17.78
2019-02-24T04:16:25.289Z,17.82
2019-02-24T04:17:25.867Z,17.76
2019-02-24T04:18:26.434Z,17.79
2019-02-24T04:19:27.063Z,17.78
2019-02-24T04:20:27.638Z,17.82
2019-02-24T04:21:28.224Z,17.79
2019-02-24T04:22:28.788Z,17.76
2019-02-24T04:23:29.360Z,17.82
2019-02-24T04:25:53.258Z,17.86
2019-02-24T04:26:53.825Z,17.78
2019-02-24T04:29:09.768Z,17.70
2019-02-24T04:37:21.269Z,17.71
2019-02-24T04:38:21.844Z,17.74
2019-02-24T04:39:22.419Z,17.76
2019-02-24T04:40:22.996Z,17.71
2019-02-24T04:41:23.567Z,17.67
2019-02-24T04:42:24.191Z,17.68
2019-02-24T04:43:24.766Z,17.70
2019-02-24T04:44:25.453Z,17.71
2019-02-24T04:45:25.988Z,17.71
2019-02-24T04:46:26.563Z,17.67
2019-02-24T04:47:27.139Z,17.65
2019-02-24T04:48:27.716Z,17.63
2019-02-24T04:49:28.330Z,17.64
2019-02-24T04:50:28.910Z,17.56
2019-02-24T04:51:29.525Z,17.60
2019-02-24T04:52:30.099Z,17.63
2019-02-24T04:53:30.681Z,17.59
2019-02-24T04:54:31.296Z,17.59
2019-02-24T04:55:31.921Z,17.57
2019-02-24T04:56:32.502Z,17.52
2019-02-24T04:57:33.116Z,17.51
2019-02-24T04:58:33.741Z,17.52
2019-02-24T04:59:35.216Z,17.46
2019-02-24T05:00:35.886Z,17.56
2019-02-24T05:01:36.456Z,17.48
2019-02-24T05:02:37.128Z,17.48
2019-02-24T05:03:37.699Z,17.49
2019-02-24T05:04:38.274Z,17.45
2019-02-24T05:06:40.415Z,17.48
2019-02-24T05:07:40.991Z,17.42
2019-02-24T05:08:41.564Z,17.41
2019-02-24T05:09:42.159Z,17.41
2019-02-24T05:10:42.717Z,17.44
2019-02-24T05:11:43.291Z,17.30
2019-02-24T05:12:44.069Z,17.48
2019-02-24T05:13:44.641Z,17.41
2019-02-24T05:14:45.258Z,17.44
2019-02-24T05:15:45.831Z,17.42
2019-02-24T05:16:46.407Z,17.34
2019-02-24T05:17:47.030Z,17.42
2019-02-24T05:18:47.608Z,17.45
2019-02-24T05:19:48.183Z,17.44
2019-02-24T05:20:48.758Z,17.42
2019-02-24T05:21:49.357Z,17.45
2019-02-24T05:22:49.957Z,17.46
2019-02-24T05:23:50.530Z,17.44
2019-02-24T05:24:51.107Z,17.38
2019-02-24T05:25:51.682Z,17.44
2019-02-24T05:26:52.260Z,17.44
2019-02-24T05:27:52.836Z,17.48
2019-02-24T05:28:53.417Z,17.46
2019-02-24T05:29:54.042Z,17.45
2019-02-24T05:30:54.653Z,17.48
2019-02-24T05:31:55.230Z,17.39
2019-02-24T05:32:55.804Z,17.34
2019-02-24T05:33:56.430Z,17.33
2019-02-24T05:34:57.001Z,17.36
2019-02-24T05:35:57.578Z,17.33
2019-02-24T05:36:58.202Z,17.38
2019-02-24T05:37:58.809Z,17.39
2019-02-24T05:38:59.389Z,17.42
2019-02-24T05:39:59.956Z,17.42
2019-02-24T05:41:00.532Z,17.38
2019-02-24T05:42:01.106Z,17.31
2019-02-24T05:43:01.724Z,17.33
2019-02-24T05:44:02.292Z,17.34
2019-02-24T05:45:02.866Z,17.34
2019-02-24T05:46:03.439Z,17.30
2019-02-24T05:47:04.014Z,17.38
2019-02-24T05:48:04.587Z,17.31
2019-02-24T05:49:05.167Z,17.31
2019-02-24T05:50:05.736Z,17.27
2019-02-24T05:51:06.309Z,17.34
2019-02-24T05:52:06.886Z,17.27
2019-02-24T05:53:07.509Z,17.24
2019-02-24T05:54:08.084Z,17.26
2019-02-24T05:55:08.659Z,17.29
2019-02-24T05:56:09.236Z,17.27
2019-02-24T05:57:09.905Z,17.33
2019-02-24T05:58:10.478Z,17.30
2019-02-24T05:59:11.050Z,17.33
2019-02-24T06:00:11.622Z,17.27
2019-02-24T06:01:12.199Z,17.26
2019-02-24T06:02:12.775Z,17.46
2019-02-24T06:03:13.352Z,17.31
2019-02-24T06:04:13.930Z,17.34
2019-02-24T06:05:14.499Z,17.31
2019-02-24T06:06:15.077Z,17.31
2019-02-24T06:07:15.702Z,17.31
2019-02-24T06:08:16.321Z,17.30
2019-02-24T06:09:16.942Z,17.29
2019-02-24T06:10:17.516Z,17.24
2019-02-24T06:11:18.088Z,17.24
2019-02-24T06:12:18.663Z,17.24
2019-02-24T06:13:19.287Z,17.20
2019-02-24T06:14:19.943Z,17.14
2019-02-24T06:15:20.482Z,17.19
2019-02-24T06:16:21.058Z,17.16
2019-02-24T06:17:21.634Z,17.08
2019-02-24T06:18:22.207Z,17.12
2019-02-24T06:19:22.782Z,17.14
2019-02-24T06:20:23.359Z,17.20
2019-02-24T06:21:23.931Z,17.15
2019-02-24T06:22:24.513Z,17.12
2019-02-24T06:23:25.081Z,17.09
2019-02-24T06:24:25.657Z,17.09
2019-02-24T06:25:26.235Z,17.11
2019-02-24T06:26:26.813Z,17.05
2019-02-24T06:27:27.384Z,17.20
2019-02-24T06:28:27.963Z,17.14
2019-02-24T06:29:28.539Z,17.09
2019-02-24T06:30:29.163Z,17.15
2019-02-24T06:31:29.787Z,17.14
2019-02-24T06:32:30.516Z,17.15
2019-02-24T06:33:31.092Z,17.16
2019-02-24T06:34:31.668Z,17.20
2019-02-24T06:36:33.846Z,17.02
2019-02-24T06:37:34.409Z,17.15
2019-02-24T06:39:26.043Z,17.11
2019-02-24T06:41:42.027Z,17.04
2019-02-24T06:45:42.478Z,17.08
2019-02-24T06:47:27.348Z,17.05
2019-02-24T06:48:45.683Z,17.06
2019-02-24T06:50:45.367Z,17.08
2019-02-24T06:53:21.136Z,17.09
2019-02-24T06:57:46.378Z,17.01
2019-02-24T07:01:59.605Z,16.96
2019-02-24T07:04:57.384Z,16.94
2019-02-24T07:08:54.654Z,17.06
2019-02-24T07:09:55.227Z,17.04
2019-02-24T07:10:55.803Z,17.05
2019-02-24T07:11:56.377Z,17.04
2019-02-24T07:12:56.951Z,17.01
2019-02-24T07:13:57.524Z,17.05
2019-02-24T07:14:58.097Z,17.11
2019-02-24T07:15:58.671Z,17.04
2019-02-24T07:16:59.278Z,17.05
2019-02-24T07:17:59.818Z,17.04
2019-02-24T07:19:00.444Z,17.09
2019-02-24T07:20:01.019Z,17.06
2019-02-24T07:21:01.591Z,17.12
2019-02-24T07:22:02.166Z,17.12
2019-02-24T07:23:02.739Z,17.14
2019-02-24T07:24:03.318Z,17.06
2019-02-24T07:25:03.942Z,17.11
2019-02-24T07:26:04.568Z,17.09
2019-02-24T07:27:05.141Z,17.15
2019-02-24T07:28:05.716Z,17.19
2019-02-24T07:29:06.291Z,17.26
2019-02-24T07:30:06.916Z,17.20
2019-02-24T07:31:07.492Z,17.16
2019-02-24T07:32:08.067Z,17.19
2019-02-24T07:33:08.642Z,17.22
2019-02-24T07:34:09.279Z,17.06
2019-02-24T07:35:09.890Z,17.11
2019-02-24T07:36:10.463Z,17.08
2019-02-24T07:37:13.245Z,17.08
2019-02-24T07:38:12.607Z,17.11
2019-02-24T07:39:13.179Z,17.08
2019-02-24T07:40:13.751Z,17.01
2019-02-24T07:41:14.373Z,17.05
2019-02-24T07:42:14.949Z,16.97
2019-02-24T07:43:15.524Z,16.97
2019-02-24T07:44:16.099Z,16.94
2019-02-24T07:45:16.677Z,16.93
2019-02-24T07:46:17.246Z,16.93
2019-02-24T07:47:17.819Z,17.01
2019-02-24T07:48:18.394Z,16.97
2019-02-24T07:49:18.974Z,16.90
2019-02-24T07:50:19.594Z,16.90
2019-02-24T07:51:20.166Z,16.90
2019-02-24T07:52:20.739Z,16.96
2019-02-24T07:53:21.313Z,16.91
2019-02-24T07:54:21.890Z,16.96
2019-02-24T07:55:22.507Z,16.91
2019-02-24T07:56:23.084Z,17.02
2019-02-24T07:57:23.663Z,16.89
2019-02-24T07:58:24.233Z,16.91
2019-02-24T07:59:24.810Z,16.99
2019-02-24T08:00:31.986Z,16.93
2019-02-24T08:01:27.048Z,16.90
2019-02-24T08:02:27.625Z,16.94
2019-02-24T08:03:28.194Z,16.94
2019-02-24T08:04:28.769Z,16.97
2019-02-24T08:05:29.344Z,16.93
2019-02-24T08:06:29.919Z,16.89
2019-02-24T08:07:30.495Z,16.87
2019-02-24T08:08:31.070Z,16.96
2019-02-24T08:09:31.647Z,16.91
2019-02-24T08:10:32.263Z,16.91
2019-02-24T08:11:32.839Z,16.91
2019-02-24T08:12:33.412Z,16.94
2019-02-24T08:13:33.986Z,16.94
2019-02-24T08:14:34.558Z,16.93
2019-02-24T08:15:35.143Z,16.97
2019-02-24T08:16:35.750Z,16.93
2019-02-24T08:17:36.324Z,16.89
2019-02-24T08:18:37.047Z,16.93
2019-02-24T08:19:37.617Z,16.93
2019-02-24T08:20:38.259Z,16.94
2019-02-24T08:21:38.815Z,16.91
2019-02-24T08:22:39.388Z,16.91
2019-02-24T08:23:39.964Z,16.94
2019-02-24T08:24:40.534Z,16.91
2019-02-24T08:25:41.109Z,16.87
2019-02-24T08:26:41.684Z,16.91
2019-02-24T08:27:42.259Z,16.93
2019-02-24T08:28:42.837Z,16.94
2019-02-24T08:29:43.411Z,16.94
2019-02-24T08:30:43.982Z,16.99
2019-02-24T08:31:44.558Z,16.96
2019-02-24T08:32:45.133Z,16.97
2019-02-24T08:33:45.707Z,17.02
2019-02-24T08:34:46.281Z,17.02
2019-02-24T08:35:46.856Z,17.04
2019-02-24T08:36:47.431Z,17.08
2019-02-24T08:37:48.004Z,17.11
2019-02-24T08:38:48.623Z,17.06
2019-02-24T08:39:49.247Z,17.08
2019-02-24T08:40:49.872Z,17.08
2019-02-24T08:41:50.447Z,17.06
2019-02-24T08:42:51.026Z,17.04
2019-02-24T08:43:51.596Z,17.04
2019-02-24T08:44:52.170Z,17.05
2019-02-24T08:45:52.745Z,17.08
2019-02-24T08:46:53.321Z,17.11
2019-02-24T08:47:53.937Z,17.05
2019-02-24T08:48:54.510Z,17.08
2019-02-24T08:49:55.087Z,17.11
2019-02-24T08:50:55.657Z,17.12
2019-02-24T08:51:56.231Z,17.16
2019-02-24T08:52:56.805Z,17.20
2019-02-24T08:53:57.378Z,17.23
2019-02-24T08:54:57.953Z,17.26
2019-02-24T08:55:58.528Z,17.27
2019-02-24T08:56:59.151Z,17.29
2019-02-24T08:57:59.726Z,17.29
2019-02-24T08:59:00.311Z,17.27
2019-02-24T09:00:00.927Z,17.29
2019-02-24T09:01:01.502Z,17.42
2019-02-24T09:02:02.076Z,17.31
2019-02-24T09:03:02.650Z,17.44
2019-02-24T09:04:03.224Z,17.41
2019-02-24T09:05:03.799Z,17.34
2019-02-24T09:06:04.375Z,17.42
2019-02-24T09:07:04.952Z,17.34
2019-02-24T09:08:05.530Z,17.46
2019-02-24T09:09:06.104Z,17.49
2019-02-24T09:10:06.679Z,17.51
2019-02-24T09:11:07.255Z,17.56
2019-02-24T09:12:07.831Z,17.49
2019-02-24T09:13:08.451Z,17.48
2019-02-24T09:14:09.075Z,17.41
2019-02-24T09:15:09.707Z,17.46
2019-02-24T09:16:10.295Z,17.46
2019-02-24T09:17:10.911Z,17.42
2019-02-24T09:18:11.529Z,17.36
2019-02-24T09:19:12.103Z,17.41
2019-02-24T09:20:12.682Z,17.45
2019-02-24T09:21:13.257Z,17.42
2019-02-24T09:22:13.841Z,17.46
2019-02-24T09:23:14.410Z,17.41
2019-02-24T09:24:14.984Z,17.38
2019-02-24T09:25:15.561Z,17.36
2019-02-24T09:26:16.137Z,17.45
2019-02-24T09:27:16.714Z,17.45
2019-02-24T09:28:17.294Z,17.44
2019-02-24T09:29:18.030Z,17.42
2019-02-24T09:30:18.600Z,17.41
2019-02-24T09:31:19.174Z,17.45
2019-02-24T09:32:19.803Z,17.46
2019-02-24T09:33:20.381Z,17.48
2019-02-24T09:34:20.960Z,17.63
2019-02-24T09:35:21.539Z,17.60
2019-02-24T09:36:22.317Z,17.68
2019-02-24T09:37:22.893Z,17.68
2019-02-24T09:38:23.475Z,17.65
2019-02-24T09:39:24.049Z,17.76
2019-02-24T09:40:24.626Z,17.79
2019-02-24T09:41:25.205Z,17.72
2019-02-24T09:42:25.784Z,17.76
2019-02-24T09:43:26.361Z,17.87
2019-02-24T09:44:26.941Z,17.82
2019-02-24T09:45:27.520Z,17.86
2019-02-24T09:46:28.285Z,17.79
2019-02-24T09:47:28.887Z,17.82
2019-02-24T09:48:29.462Z,17.79
2019-02-24T09:49:30.043Z,17.95
2019-02-24T09:50:30.670Z,17.98
2019-02-24T09:51:31.249Z,18.00
2019-02-24T09:52:31.829Z,17.95
2019-02-24T09:53:32.408Z,18.00
2019-02-24T09:54:32.987Z,18.00
2019-02-24T09:55:33.568Z,18.00
2019-02-24T09:56:34.145Z,17.94
2019-02-24T09:57:36.923Z,18.00
2019-02-24T09:58:36.343Z,18.07
2019-02-24T09:59:36.975Z,18.05
2019-02-24T10:00:37.554Z,18.05
2019-02-24T10:01:38.134Z,18.07
2019-02-24T10:02:38.765Z,18.18
2019-02-24T10:03:39.345Z,18.04
2019-02-24T10:04:39.923Z,18.19
2019-02-24T10:05:40.500Z,18.18
2019-02-24T10:06:41.077Z,18.18
2019-02-24T10:07:41.655Z,18.26
2019-02-24T10:08:42.235Z,18.29
2019-02-24T10:09:42.813Z,18.34
2019-02-24T10:10:43.392Z,18.35
2019-02-24T10:11:43.969Z,18.41
2019-02-24T10:12:44.548Z,18.40
2019-02-24T10:13:45.131Z,18.40
2019-02-24T10:14:45.709Z,18.41
2019-02-24T10:15:46.337Z,18.56
2019-02-24T10:16:46.918Z,18.53
2019-02-24T10:17:47.548Z,18.47
2019-02-24T10:18:48.124Z,18.55
2019-02-24T10:19:48.703Z,18.49
2019-02-24T10:20:49.335Z,18.50
2019-02-24T10:21:49.913Z,18.63
2019-02-24T10:22:50.494Z,18.59
2019-02-24T10:23:51.117Z,18.55
2019-02-24T10:24:51.693Z,18.50
2019-02-24T10:25:52.276Z,18.65
2019-02-24T10:26:52.854Z,18.58
2019-02-24T10:27:53.435Z,18.66
2019-02-24T10:28:54.067Z,18.59
2019-02-24T10:29:54.645Z,18.65
2019-02-24T10:30:55.225Z,18.62
2019-02-24T10:31:55.806Z,18.62
2019-02-24T10:32:56.384Z,18.63
2019-02-24T10:33:56.963Z,18.62
2019-02-24T10:34:57.549Z,18.63
2019-02-24T10:35:58.128Z,18.73
2019-02-24T10:36:58.707Z,18.78
2019-02-24T10:37:59.290Z,18.90
2019-02-24T10:38:59.920Z,18.92
2019-02-24T10:40:00.500Z,18.99
2019-02-24T10:41:01.134Z,19.09
2019-02-24T10:42:01.714Z,19.15
2019-02-24T10:43:02.293Z,19.18
2019-02-24T10:44:02.872Z,19.18
2019-02-24T10:45:03.453Z,19.21
2019-02-24T10:46:04.036Z,19.16
2019-02-24T10:47:04.666Z,19.27
2019-02-24T10:48:13.748Z,19.30
2019-02-24T10:49:05.920Z,19.24
2019-02-24T10:50:06.496Z,19.29
2019-02-24T10:51:07.078Z,19.39
2019-02-24T10:52:07.661Z,19.41
2019-02-24T10:53:08.239Z,19.41
2019-02-24T10:54:08.824Z,19.44
2019-02-24T10:55:09.403Z,19.51
2019-02-24T10:56:09.986Z,19.63
2019-02-24T10:57:13.018Z,19.71
2019-02-24T10:58:11.189Z,19.64
2019-02-24T10:59:11.769Z,19.81
2019-02-24T11:00:12.352Z,19.79
2019-02-24T11:01:12.933Z,19.74
2019-02-24T11:02:13.518Z,19.85
2019-02-24T11:03:14.098Z,19.88
2019-02-24T11:04:14.681Z,19.95
2019-02-24T11:05:15.268Z,19.88
2019-02-24T11:06:15.848Z,20.02
2019-02-24T11:07:16.429Z,19.96
2019-02-24T11:08:17.014Z,20.06
2019-02-24T11:09:17.646Z,20.02
2019-02-24T11:10:18.227Z,20.02
2019-02-24T11:11:18.807Z,20.16
2019-02-24T11:12:19.389Z,20.14
2019-02-24T11:13:19.973Z,20.16
2019-02-24T11:14:20.556Z,20.16
2019-02-24T11:15:21.139Z,20.21
2019-02-24T11:16:21.727Z,20.24
2019-02-24T11:17:22.306Z,20.29
2019-02-24T11:18:22.889Z,20.28
2019-02-24T11:19:28.526Z,20.29
2019-02-24T11:20:29.109Z,20.34
2019-02-24T11:21:29.692Z,20.43
2019-02-24T11:22:30.277Z,20.40
2019-02-24T11:23:30.862Z,20.48
2019-02-24T11:24:31.448Z,20.41
2019-02-24T11:25:32.084Z,20.51
2019-02-24T11:26:32.722Z,20.52
2019-02-24T11:27:33.355Z,20.50
2019-02-24T11:28:33.939Z,20.51
2019-02-24T11:29:34.521Z,20.51
2019-02-24T11:30:35.110Z,20.43
2019-02-24T11:31:38.286Z,20.43
2019-02-24T11:32:37.269Z,20.47
2019-02-24T11:33:37.853Z,20.44
2019-02-24T11:34:38.437Z,20.39
2019-02-24T11:35:39.025Z,20.36
2019-02-24T11:36:39.605Z,20.31
2019-02-24T11:37:40.188Z,20.31
2019-02-24T11:38:40.775Z,20.31
2019-02-24T11:39:41.357Z,20.18
2019-02-24T11:40:41.942Z,20.13
2019-02-24T11:41:42.576Z,20.16
2019-02-24T11:43:45.534Z,20.00
2019-02-24T11:45:47.786Z,19.99
2019-02-24T11:46:48.363Z,19.94
2019-02-24T11:51:43.002Z,19.89
2019-02-24T11:52:57.341Z,19.85
2019-02-24T11:53:57.916Z,19.88
2019-02-24T11:56:35.695Z,19.79
2019-02-24T11:57:36.311Z,19.71
2019-02-24T11:59:38.513Z,19.73
2019-02-24T12:03:00.705Z,19.69
2019-02-24T12:05:31.018Z,19.66
2019-02-24T12:06:31.601Z,19.69
2019-02-24T12:07:32.184Z,19.64
2019-02-24T12:08:32.766Z,19.64
2019-02-24T12:09:33.350Z,19.69
2019-02-24T12:10:36.954Z,19.67
2019-02-24T12:11:37.527Z,19.63
2019-02-24T12:26:54.582Z,19.82
2019-02-24T12:27:55.155Z,19.79
2019-02-24T12:28:55.729Z,19.84
2019-02-24T12:29:56.347Z,19.84
2019-02-24T12:30:57.023Z,19.91
2019-02-24T12:31:57.598Z,19.89
2019-02-24T12:32:58.174Z,19.91
2019-02-24T12:33:58.797Z,19.91
2019-02-24T12:34:59.473Z,20.02
2019-02-24T12:36:00.101Z,19.92
2019-02-24T12:37:00.677Z,19.92
2019-02-24T12:38:01.252Z,19.99
2019-02-24T12:39:01.827Z,19.94
2019-02-24T12:40:02.405Z,20.00
2019-02-24T12:41:02.981Z,20.04
2019-02-24T12:42:03.559Z,20.09
2019-02-24T12:43:04.139Z,20.03
2019-02-24T12:44:04.714Z,19.95
2019-02-24T12:45:05.291Z,20.02
2019-02-24T12:46:05.870Z,20.04
2019-02-24T12:47:06.448Z,20.00
2019-02-24T12:48:07.026Z,20.02
2019-02-24T12:49:07.602Z,20.13
2019-02-24T12:51:18.069Z,20.14
2019-02-24T12:55:37.185Z,20.18
2019-02-24T12:57:35.592Z,20.16
2019-02-24T12:58:36.226Z,20.14
2019-02-24T12:59:36.811Z,20.18
2019-02-24T13:00:37.395Z,20.16
2019-02-24T13:01:37.977Z,20.21
2019-02-24T13:02:38.560Z,20.16
2019-02-24T13:03:39.144Z,20.18
2019-02-24T13:04:39.726Z,20.16
2019-02-24T13:05:40.310Z,20.16
2019-02-24T13:06:40.894Z,20.19
2019-02-24T13:07:41.528Z,20.10
2019-02-24T13:08:42.115Z,20.26
2019-02-24T13:09:42.739Z,20.25
2019-02-24T13:10:43.321Z,20.26
2019-02-24T13:11:43.905Z,20.26
2019-02-24T13:12:44.492Z,20.31
2019-02-24T13:13:45.072Z,20.31
2019-02-24T13:14:45.752Z,20.32
2019-02-24T13:15:46.335Z,20.32
2019-02-24T13:16:46.919Z,20.32
2019-02-24T13:17:47.504Z,20.34
2019-02-24T13:18:48.085Z,20.39
2019-02-24T13:19:48.674Z,20.43
2019-02-24T13:20:49.302Z,20.51
2019-02-24T13:21:49.879Z,20.43
2019-02-24T13:22:50.464Z,20.51
2019-02-24T13:23:51.197Z,20.52
2019-02-24T13:24:51.782Z,20.47
2019-02-24T13:25:52.416Z,20.44
2019-02-24T13:26:53.000Z,20.51
2019-02-24T13:27:53.584Z,20.55
2019-02-24T13:28:54.167Z,20.62
2019-02-24T13:29:54.752Z,20.63
2019-02-24T13:30:55.329Z,20.63
2019-02-24T13:31:55.963Z,20.63
2019-02-24T13:32:56.544Z,20.67
2019-02-24T13:33:57.131Z,20.69
2019-02-24T13:34:57.754Z,20.63
2019-02-24T13:35:58.335Z,20.69
2019-02-24T13:36:58.921Z,20.77
2019-02-24T13:37:59.502Z,20.74
2019-02-24T13:39:00.087Z,20.70
2019-02-24T13:40:00.670Z,20.81
2019-02-24T13:41:01.251Z,20.78
2019-02-24T13:42:01.983Z,20.70
2019-02-24T13:43:02.564Z,20.80
2019-02-24T13:44:03.149Z,20.77
2019-02-24T13:45:03.741Z,20.77
2019-02-24T13:46:04.361Z,20.85
2019-02-24T13:47:04.944Z,20.87
2019-02-24T13:48:05.579Z,20.92
2019-02-24T13:49:06.164Z,20.87
2019-02-24T13:50:06.760Z,20.88
2019-02-24T13:51:07.329Z,20.88
2019-02-24T13:52:07.963Z,20.96
2019-02-24T13:53:08.546Z,20.95
2019-02-24T13:54:09.131Z,20.95
2019-02-24T13:55:09.717Z,21.00
2019-02-24T13:56:10.296Z,21.00
2019-02-24T13:57:10.880Z,21.02
2019-02-24T13:58:11.470Z,20.97
2019-02-24T13:59:12.048Z,21.00
2019-02-24T14:00:12.630Z,21.03
2019-02-24T14:01:13.212Z,21.09
2019-02-24T14:02:13.794Z,21.02
2019-02-24T14:03:14.377Z,21.02
2019-02-24T14:04:14.961Z,21.07
2019-02-24T14:05:15.543Z,21.07
2019-02-24T14:06:16.175Z,21.05
2019-02-24T14:07:16.759Z,21.03
2019-02-24T14:08:17.395Z,21.09
2019-02-24T14:09:17.976Z,21.11
2019-02-24T14:10:18.607Z,21.12
2019-02-24T14:11:19.138Z,21.12
2019-02-24T14:12:19.719Z,21.17
2019-02-24T14:13:21.195Z,21.20
2019-02-24T14:14:21.778Z,21.15
2019-02-24T14:15:22.364Z,21.15
2019-02-24T14:16:22.944Z,21.17
2019-02-24T14:17:23.527Z,21.17
2019-02-24T14:18:24.117Z,21.15
2019-02-24T14:19:24.695Z,21.22
2019-02-24T14:20:25.288Z,21.25
2019-02-24T14:21:25.901Z,21.27
2019-02-24T14:22:26.450Z,21.22
2019-02-24T14:23:27.032Z,21.27
2019-02-24T14:24:27.618Z,21.29
2019-02-24T14:25:28.202Z,21.33
2019-02-24T14:26:28.786Z,21.42
2019-02-24T14:27:29.371Z,21.30
2019-02-24T14:28:29.952Z,21.29
2019-02-24T14:29:30.587Z,21.42
2019-02-24T14:30:31.216Z,21.43
2019-02-24T14:31:31.802Z,21.52
2019-02-24T14:32:33.194Z,21.54
2019-02-24T14:33:33.855Z,21.57
2019-02-24T14:34:34.433Z,21.58
2019-02-24T14:35:35.065Z,21.62
2019-02-24T14:36:35.651Z,21.61
2019-02-24T14:38:37.802Z,21.57
2019-02-24T14:39:38.379Z,21.67
2019-02-24T14:40:38.959Z,21.70
2019-02-24T14:41:39.535Z,21.70
2019-02-24T14:42:40.112Z,21.82
2019-02-24T14:45:13.899Z,22.10
2019-02-24T14:46:14.487Z,22.22
2019-02-24T14:47:15.123Z,22.48
2019-02-24T14:48:15.710Z,22.88
2019-02-24T14:49:16.296Z,23.47
2019-02-24T14:50:16.883Z,24.01
2019-02-24T14:51:17.469Z,24.21
2019-02-24T14:52:18.054Z,24.43
2019-02-24T14:53:18.692Z,24.43
2019-02-24T14:54:19.279Z,24.36
2019-02-24T15:00:33.776Z,24.38
2019-02-24T15:02:49.794Z,24.33
2019-02-24T15:03:50.382Z,24.05
2019-02-24T15:04:51.017Z,23.80
2019-02-24T15:06:09.415Z,23.88
2019-02-24T15:10:56.337Z,24.74
2019-02-24T15:11:56.915Z,24.77
2019-02-24T15:12:57.498Z,24.95
2019-02-24T15:18:58.305Z,25.99
2019-02-24T15:21:00.462Z,26.58
2019-02-24T15:22:01.193Z,27.02
2019-02-24T15:23:15.539Z,27.54
2019-02-24T15:24:16.135Z,27.90
2019-02-24T15:26:38.514Z,28.66
2019-02-24T15:28:40.714Z,28.96
2019-02-24T15:29:41.307Z,29.13
2019-02-24T15:30:41.897Z,29.19
2019-02-24T15:31:42.494Z,29.29
2019-02-24T15:35:00.284Z,29.05
2019-02-24T15:36:00.835Z,29.22
2019-02-24T15:37:01.427Z,29.35
2019-02-24T15:38:02.024Z,29.41
2019-02-24T15:39:02.608Z,29.45
2019-02-24T15:40:03.251Z,29.56
2019-02-24T15:41:03.893Z,29.53
2019-02-24T15:42:04.475Z,29.68
2019-02-24T15:43:05.069Z,29.68
2019-02-24T15:44:05.710Z,29.51
2019-02-24T15:45:06.303Z,29.14
2019-02-24T15:46:06.988Z,28.67
2019-02-24T15:51:13.905Z,28.07
2019-02-24T15:52:14.497Z,27.85
2019-02-24T15:53:15.094Z,27.60
2019-02-24T15:54:15.681Z,27.51
2019-02-24T15:55:16.273Z,27.48
2019-02-24T15:56:16.869Z,27.39
2019-02-24T15:57:17.604Z,27.30
2019-02-24T15:58:18.204Z,27.32
2019-02-24T15:59:18.787Z,27.47
2019-02-24T16:00:19.378Z,27.52
2019-02-24T16:01:20.020Z,27.58
2019-02-24T16:02:20.611Z,27.63
2019-02-24T16:03:21.201Z,27.64
2019-02-24T16:04:21.793Z,27.48
2019-02-24T16:05:22.383Z,27.39
2019-02-24T16:06:22.976Z,27.40
2019-02-24T16:07:23.565Z,27.25
2019-02-24T16:08:24.155Z,27.15
2019-02-24T16:09:24.746Z,27.03
2019-02-24T16:10:25.338Z,27.02
2019-02-24T16:11:25.931Z,26.99
2019-02-24T16:12:26.521Z,26.93
2019-02-24T16:13:27.160Z,26.88
2019-02-24T16:14:27.751Z,27.10
2019-02-24T16:15:28.343Z,27.05
2019-02-24T16:16:28.938Z,26.97
2019-02-24T16:17:29.529Z,26.83
2019-02-24T16:18:30.121Z,26.63
2019-02-24T16:19:30.711Z,26.52
2019-02-24T16:20:31.300Z,26.51
2019-02-24T16:21:31.893Z,26.41
2019-02-24T16:22:32.483Z,26.37
2019-02-24T16:23:33.124Z,26.23
2019-02-24T16:24:33.715Z,26.13
2019-02-24T16:25:34.305Z,25.84
2019-02-24T16:26:34.898Z,25.75
2019-02-24T16:27:35.492Z,25.62
2019-02-24T16:28:36.088Z,25.48
2019-02-24T16:29:36.672Z,25.33
2019-02-24T16:30:37.261Z,25.22
2019-02-24T16:31:37.858Z,25.22
2019-02-24T16:32:38.445Z,25.14
2019-02-24T16:33:39.033Z,25.04
2019-02-24T16:34:39.625Z,24.99
2019-02-24T16:37:43.370Z,24.66
2019-02-24T16:39:45.583Z,24.53
2019-02-24T16:41:47.735Z,24.55
2019-02-24T16:43:02.145Z,24.29
2019-02-24T16:44:02.723Z,24.11
2019-02-24T16:45:04.306Z,24.01
2019-02-24T16:46:04.883Z,23.87
2019-02-24T16:47:05.459Z,23.83
2019-02-24T16:48:06.041Z,23.77
2019-02-24T16:49:48.469Z,23.58
2019-02-24T16:50:49.049Z,23.46
2019-02-24T16:51:49.638Z,23.47
2019-02-24T16:52:50.227Z,23.50
2019-02-24T16:53:50.865Z,23.62
2019-02-24T16:54:52.820Z,23.74
2019-02-24T16:55:53.090Z,23.78
2019-02-24T16:56:53.681Z,23.73
2019-02-24T16:57:54.262Z,23.71
2019-02-24T16:58:54.851Z,23.76
2019-02-24T16:59:55.436Z,23.77
2019-02-24T17:00:56.023Z,23.96
2019-02-24T17:01:56.615Z,23.99
2019-02-24T17:02:57.248Z,23.77
2019-02-24T17:03:57.832Z,23.59
2019-02-24T17:08:20.022Z,23.31
2019-02-24T17:10:36.637Z,23.61
2019-02-24T17:11:37.259Z,23.55
2019-02-24T17:12:38.337Z,23.47
2019-02-24T17:13:39.014Z,23.54
2019-02-24T17:14:39.590Z,23.71
2019-02-24T17:16:41.743Z,23.73
2019-02-24T17:17:42.326Z,23.88
2019-02-24T17:18:42.952Z,23.88
2019-02-24T17:19:43.530Z,23.84
2019-02-24T17:20:44.113Z,23.80
2019-02-24T17:21:44.690Z,23.74
2019-02-24T17:22:45.271Z,23.61
2019-02-24T17:23:49.900Z,23.61
2019-02-24T17:24:47.422Z,23.55
2019-02-24T17:25:48.001Z,23.40
2019-02-24T17:26:48.582Z,23.23
2019-02-24T17:27:49.157Z,23.06
2019-02-24T17:28:49.885Z,22.85
2019-02-24T17:29:50.464Z,22.75
2019-02-24T17:30:51.043Z,22.66
2019-02-24T17:31:51.638Z,22.59
2019-02-24T17:32:52.246Z,22.41
2019-02-24T17:33:52.868Z,22.38
2019-02-24T17:35:54.273Z,22.14
2019-02-24T17:37:08.614Z,22.11
2019-02-24T17:39:03.007Z,21.89
2019-02-24T17:40:03.634Z,21.87
2019-02-24T17:42:33.459Z,21.82
2019-02-24T17:43:34.034Z,21.73
2019-02-24T17:44:34.673Z,21.66
2019-02-24T17:45:35.243Z,21.57
2019-02-24T17:46:35.815Z,21.52
2019-02-24T17:48:42.234Z,21.32
2019-02-24T17:49:42.821Z,21.35
2019-02-24T17:50:43.406Z,21.17
2019-02-24T17:51:44.041Z,21.20
2019-02-24T17:53:46.182Z,21.07
2019-02-24T17:58:05.378Z,20.97
2019-02-24T18:00:07.579Z,20.88
2019-02-24T18:01:08.362Z,20.82
2019-02-24T18:02:08.975Z,20.77
2019-02-24T18:03:09.550Z,20.74
2019-02-24T18:04:10.127Z,20.67
2019-02-24T18:05:10.709Z,20.69
2019-02-24T18:06:11.288Z,20.63
2019-02-24T18:07:11.904Z,20.59
2019-02-24T18:08:12.477Z,20.63
2019-02-24T18:09:13.094Z,20.51
2019-02-24T18:10:13.669Z,20.56
2019-02-24T18:11:14.247Z,20.47
2019-02-24T18:12:14.820Z,20.41